Time;durP1;ratioP1;P1;durP2;ratioP2;P2;SDS_P1;SDS_P2;PMS_P1;PMS_P2;Temp;Humidity;BMP_temperature;BMP_pressure;BME280_temperature;BME280_humidity;BME280_pressure;Samples;Min_cycle;Max_cycle;Signal;HPM_P1;HPM_P2
2021/03/09 00:00:07;;;;;;;39.50;24.40;;;8.20;98.40;;;;;;5082637;28;20455;-73
2021/03/09 00:02:34;;;;;;;39.53;25.83;;;8.20;98.50;;;;;;5085059;28;20416;-73
2021/03/09 00:04:59;;;;;;;39.20;22.70;;;8.20;98.60;;;;;;5084030;28;20875;-72
2021/03/09 00:07:25;;;;;;;46.10;27.70;;;8.20;98.50;;;;;;5073126;28;20417;-72
2021/03/09 00:09:51;;;;;;;41.37;24.80;;;8.20;98.40;;;;;;5082719;28;20199;-72
2021/03/09 00:12:16;;;;;;;37.20;23.50;;;8.20;98.10;;;;;;5081664;28;20172;-72
2021/03/09 00:14:42;;;;;;;42.47;25.00;;;8.20;97.90;;;;;;5083262;28;20204;-73
2021/03/09 00:17:08;;;;;;;45.70;26.00;;;8.20;97.80;;;;;;5083231;28;20209;-72
2021/03/09 00:19:34;;;;;;;41.50;24.43;;;8.20;98.00;;;;;;5084041;28;20192;-72
2021/03/09 00:21:59;;;;;;;42.57;25.77;;;8.20;98.20;;;;;;5082507;28;20221;-72
2021/03/09 00:24:25;;;;;;;44.37;26.40;;;8.20;98.40;;;;;;5083865;28;20179;-72
2021/03/09 00:26:51;;;;;;;47.93;27.23;;;8.20;98.30;;;;;;5083881;28;20169;-72
2021/03/09 00:29:17;;;;;;;48.90;27.07;;;8.20;98.30;;;;;;5093789;28;20413;-72
2021/03/09 00:31:42;;;;;;;45.13;26.07;;;8.20;98.40;;;;;;5093523;28;20211;-73
2021/03/09 00:34:08;;;;;;;49.30;28.50;;;8.20;98.30;;;;;;5094248;28;20199;-73
2021/03/09 00:36:34;;;;;;;49.23;27.03;;;8.20;98.40;;;;;;5094413;28;20220;-72
2021/03/09 00:39:00;;;;;;;45.57;26.23;;;8.20;98.50;;;;;;5093667;28;20318;-72
2021/03/09 00:41:25;;;;;;;40.73;26.10;;;8.20;98.60;;;;;;5094354;28;20624;-72
2021/03/09 00:43:51;;;;;;;41.47;25.67;;;8.20;98.30;;;;;;5089531;28;20165;-72
2021/03/09 00:46:17;;;;;;;39.73;24.23;;;8.20;98.30;;;;;;5074116;28;20252;-73
2021/03/09 00:48:43;;;;;;;47.30;26.47;;;8.20;98.40;;;;;;5073252;28;20520;-73
2021/03/09 00:51:08;;;;;;;44.90;24.27;;;8.30;98.50;;;;;;5075208;28;20476;-73
2021/03/09 00:53:34;;;;;;;40.70;24.73;;;8.30;98.30;;;;;;5074169;28;20203;-72
2021/03/09 00:56:00;;;;;;;37.70;22.53;;;8.30;97.80;;;;;;5093024;28;20653;-73
2021/03/09 00:58:26;;;;;;;40.60;23.47;;;8.30;97.50;;;;;;5090668;28;20490;-73
2021/03/09 01:00:52;;;;;;;42.33;24.33;;;8.40;97.20;;;;;;5084412;28;20180;-72
2021/03/09 01:03:18;;;;;;;39.30;23.83;;;8.40;96.90;;;;;;5082506;28;20237;-72
2021/03/09 01:05:43;;;;;;;43.53;24.40;;;8.40;96.70;;;;;;5083600;28;20380;-73
2021/03/09 01:08:09;;;;;;;39.90;22.57;;;8.50;96.70;;;;;;5083703;28;20175;-73
2021/03/09 01:10:36;;;;;;;39.40;23.27;;;8.50;96.50;;;;;;5086675;28;20585;-72
2021/03/09 01:13:02;;;;;;;37.20;21.50;;;8.50;96.30;;;;;;5077514;28;20206;-72
2021/03/09 01:15:28;;;;;;;40.57;24.33;;;8.50;96.40;;;;;;5073903;28;20395;-73
2021/03/09 01:17:54;;;;;;;40.33;23.17;;;8.40;96.40;;;;;;5073125;28;20973;-72
2021/03/09 01:20:19;;;;;;;41.13;22.73;;;8.40;96.50;;;;;;5073579;28;20204;-72
2021/03/09 01:22:45;;;;;;;39.90;24.77;;;8.40;96.60;;;;;;5073048;28;20620;-72
2021/03/09 01:25:11;;;;;;;40.87;24.93;;;8.40;96.90;;;;;;5087684;28;20444;-72
2021/03/09 01:27:37;;;;;;;39.47;24.07;;;8.40;97.10;;;;;;5093002;28;20199;-72
2021/03/09 01:30:06;;;;;;;37.63;22.37;;;8.40;97.20;;;;;;5074127;28;20421;-72
2021/03/09 01:32:32;;;;;;;34.03;21.70;;;8.40;97.30;;;;;;5093647;28;20394;-73
2021/03/09 01:34:58;;;;;;;37.80;23.10;;;8.30;97.30;;;;;;5092769;28;20512;-72
2021/03/09 01:37:24;;;;;;;37.07;23.20;;;8.30;97.60;;;;;;5093376;28;20520;-72
2021/03/09 01:39:49;;;;;;;41.27;23.77;;;8.30;97.90;;;;;;5075669;28;20214;-72
2021/03/09 01:42:15;;;;;;;40.70;23.53;;;8.20;97.90;;;;;;5055132;28;20172;-73
2021/03/09 01:44:41;;;;;;;41.37;22.87;;;8.30;98.00;;;;;;5072438;28;20722;-72
2021/03/09 01:47:07;;;;;;;45.73;25.00;;;8.30;98.30;;;;;;5072895;28;20258;-73
2021/03/09 01:49:36;;;;;;;42.07;24.30;;;8.20;98.20;;;;;;5073211;28;20168;-72
2021/03/09 01:52:05;;;;;;;41.27;23.40;;;8.20;98.60;;;;;;5089474;28;20207;-73
2021/03/09 01:54:31;;;;;;;45.77;25.23;;;8.20;98.80;;;;;;5093012;28;20445;-73
2021/03/09 01:56:57;;;;;;;42.10;26.20;;;8.20;98.70;;;;;;5074156;28;21047;-73
2021/03/09 01:59:23;;;;;;;38.20;22.60;;;8.20;98.70;;;;;;5074912;28;20380;-72
2021/03/09 02:01:51;;;;;;;45.33;26.17;;;8.20;99.00;;;;;;5091110;28;20607;-73
2021/03/09 02:04:16;;;;;;;45.23;25.67;;;8.20;98.60;;;;;;5074568;28;20399;-73
2021/03/09 02:06:42;;;;;;;46.77;26.43;;;8.20;98.10;;;;;;5091715;28;20405;-73
2021/03/09 02:09:11;;;;;;;45.40;24.03;;;8.20;98.30;;;;;;5092617;28;20178;-73
2021/03/09 02:11:53;;;;;;;47.47;26.57;;;8.20;98.20;;;;;;5092221;28;20196;-73
2021/03/09 02:14:36;;;;;;;43.87;24.80;;;8.20;98.20;;;;;;5090359;28;20768;-72
2021/03/09 02:17:15;;;;;;;50.17;26.80;;;8.20;97.80;;;;;;5072477;28;20529;-72
2021/03/09 02:20:08;;;;;;;47.67;27.20;;;8.20;97.50;;;;;;5071657;28;20369;-72
2021/03/09 02:22:43;;;;;;;52.03;27.83;;;8.20;98.10;;;;;;5071773;28;20415;-72
2021/03/09 02:25:11;;;;;;;48.40;26.73;;;8.10;97.70;;;;;;5085405;28;20400;-72
2021/03/09 02:27:53;;;;;;;51.03;27.73;;;8.10;98.00;;;;;;5079943;28;20455;-72
2021/03/09 02:30:21;;;;;;;50.97;27.60;;;8.20;98.50;;;;;;5073467;28;20519;-72
2021/03/09 02:33:15;;;;;;;47.47;27.13;;;8.10;98.60;;;;;;5071101;28;20396;-72
2021/03/09 02:36:05;;;;;;;52.37;27.80;;;8.10;98.70;;;;;;5058657;28;20400;-73
2021/03/09 02:38:51;;;;;;;50.93;27.27;;;8.10;98.80;;;;;;5071893;28;20447;-72
2021/03/09 02:41:19;;;;;;;48.70;27.37;;;8.10;98.80;;;;;;5071815;28;20722;-73
2021/03/09 02:43:49;;;;;;;53.33;30.17;;;8.10;98.80;;;;;;5071161;28;20417;-73
2021/03/09 02:46:16;;;;;;;52.33;28.87;;;8.10;98.80;;;;;;5072021;28;20375;-73
2021/03/09 02:48:44;;;;;;;56.93;30.90;;;8.10;98.50;;;;;;5071216;28;20420;-72
2021/03/09 02:51:10;;;;;;;51.03;29.10;;;8.10;98.30;;;;;;5078052;28;20405;-73
2021/03/09 02:53:38;;;;;;;52.10;29.70;;;8.10;98.20;;;;;;5091484;28;20779;-73
2021/03/09 02:56:06;;;;;;;54.37;29.47;;;8.20;98.00;;;;;;5092087;28;20465;-73
2021/03/09 02:58:34;;;;;;;55.97;30.30;;;8.20;98.00;;;;;;5073780;28;20531;-73
2021/03/09 03:01:00;;;;;;;53.67;28.33;;;8.20;98.00;;;;;;5091571;28;20414;-72
2021/03/09 03:03:26;;;;;;;57.67;31.03;;;8.20;98.00;;;;;;5081296;28;20381;-73
2021/03/09 03:05:57;;;;;;;49.93;28.53;;;8.10;98.00;;;;;;5071587;28;20439;-72
2021/03/09 03:08:24;;;;;;;51.00;29.27;;;8.10;97.90;;;;;;5092163;28;20368;-72
2021/03/09 03:10:51;;;;;;;51.87;29.87;;;8.10;97.90;;;;;;5090782;28;20463;-72
2021/03/09 03:13:18;;;;;;;51.67;30.80;;;8.10;98.00;;;;;;5091989;28;20398;-72
2021/03/09 03:15:51;;;;;;;49.97;29.00;;;8.10;98.00;;;;;;5075821;28;20414;-73
2021/03/09 03:18:18;;;;;;;49.53;29.60;;;8.10;98.00;;;;;;5071705;28;20450;-72
2021/03/09 03:20:47;;;;;;;47.17;29.10;;;8.10;98.00;;;;;;5053018;28;20736;-72
2021/03/09 03:23:14;;;;;;;45.60;28.50;;;8.10;98.10;;;;;;5071654;28;20411;-74
2021/03/09 03:25:42;;;;;;;51.60;30.50;;;8.10;98.10;;;;;;5088080;28;20420;-73
2021/03/09 03:28:09;;;;;;;52.20;31.40;;;8.10;98.00;;;;;;5071636;28;20418;-73
2021/03/09 03:30:36;;;;;;;54.60;32.30;;;8.10;98.00;;;;;;5071318;28;21027;-73
2021/03/09 03:33:03;;;;;;;53.50;30.47;;;8.20;98.10;;;;;;5071700;28;20516;-73
2021/03/09 03:35:29;;;;;;;50.77;30.63;;;8.20;98.00;;;;;;5073734;28;20389;-73
2021/03/09 03:37:55;;;;;;;47.50;30.27;;;8.20;97.90;;;;;;5077947;28;20428;-73
2021/03/09 03:40:22;;;;;;;49.00;30.47;;;8.20;97.80;;;;;;5095284;28;20449;-72
2021/03/09 03:42:48;;;;;;;51.10;31.37;;;8.20;97.80;;;;;;5077015;28;20922;-73
2021/03/09 03:45:18;;;;;;;50.37;31.10;;;8.20;97.70;;;;;;5095422;28;20525;-73
2021/03/09 03:47:44;;;;;;;52.70;30.60;;;8.20;97.80;;;;;;5094826;28;20384;-73
2021/03/09 03:50:12;;;;;;;49.17;29.33;;;8.20;97.80;;;;;;5093823;28;20486;-72
2021/03/09 03:53:04;;;;;;;47.27;28.10;;;8.20;98.00;;;;;;5094824;28;20420;-73
2021/03/09 03:56:07;;;;;;;50.63;30.67;;;8.20;98.10;;;;;;5095651;28;20422;-73
2021/03/09 03:58:44;;;;;;;55.97;30.70;;;8.10;98.20;;;;;;5095448;28;20456;-73
2021/03/09 04:01:11;;;;;;;49.53;30.40;;;8.10;98.20;;;;;;5095242;28;20447;-73
2021/03/09 04:03:38;;;;;;;49.83;30.90;;;8.20;98.20;;;;;;5094766;28;20402;-71
2021/03/09 04:06:06;;;;;;;60.10;33.57;;;8.20;98.20;;;;;;5094658;28;20847;-72
2021/03/09 04:08:37;;;;;;;49.13;29.33;;;8.20;98.20;;;;;;5095148;28;20392;-72
2021/03/09 04:11:04;;;;;;;54.80;30.67;;;8.20;98.10;;;;;;5094688;28;20479;-72
2021/03/09 04:13:36;;;;;;;52.10;30.30;;;8.20;98.00;;;;;;5076768;28;20381;-72
2021/03/09 04:16:03;;;;;;;55.37;31.70;;;8.20;98.10;;;;;;5094874;28;20404;-71
2021/03/09 04:18:30;;;;;;;49.47;30.10;;;8.20;98.00;;;;;;5089348;28;20427;-71
2021/03/09 04:20:57;;;;;;;47.73;29.40;;;8.20;97.80;;;;;;5073984;28;20427;-71
2021/03/09 04:23:24;;;;;;;49.17;29.40;;;8.20;98.20;;;;;;5074741;28;20467;-71
2021/03/09 04:25:52;;;;;;;51.50;31.60;;;8.20;97.80;;;;;;5093248;28;20397;-71
2021/03/09 04:28:19;;;;;;;48.10;30.80;;;8.10;97.80;;;;;;5076154;28;20949;-72
2021/03/09 04:30:45;;;;;;;52.93;32.57;;;8.20;97.90;;;;;;5081020;28;20389;-72
2021/03/09 04:33:11;;;;;;;49.70;31.00;;;8.20;97.90;;;;;;5083453;28;20415;-71
2021/03/09 04:35:37;;;;;;;54.53;31.87;;;8.20;97.90;;;;;;5094614;28;20487;-71
2021/03/09 04:38:03;;;;;;;55.30;30.50;;;8.20;98.00;;;;;;5094252;28;20427;-72
2021/03/09 04:40:31;;;;;;;53.97;32.57;;;8.20;98.00;;;;;;5094076;28;20415;-74
2021/03/09 04:42:57;;;;;;;56.37;32.37;;;8.20;98.10;;;;;;5093625;28;20443;-71
2021/03/09 04:45:23;;;;;;;54.87;31.90;;;8.20;98.10;;;;;;5094434;28;20724;-71
2021/03/09 04:47:49;;;;;;;55.63;33.80;;;8.20;98.10;;;;;;5092516;28;20429;-72
2021/03/09 04:50:16;;;;;;;54.33;31.73;;;8.10;98.00;;;;;;5094513;28;20481;-72
2021/03/09 04:52:45;;;;;;;52.43;32.87;;;8.20;98.00;;;;;;5093707;28;20409;-72
2021/03/09 04:55:14;;;;;;;51.37;29.93;;;8.20;98.00;;;;;;5093910;28;20436;-72
2021/03/09 04:57:41;;;;;;;52.23;31.57;;;8.10;97.90;;;;;;5093467;28;20912;-72
2021/03/09 05:00:09;;;;;;;50.73;33.00;;;8.10;97.80;;;;;;5076286;28;20498;-71
2021/03/09 05:02:35;;;;;;;49.70;30.43;;;8.10;97.90;;;;;;5093814;28;20505;-71
2021/03/09 05:05:01;;;;;;;48.97;29.87;;;8.10;97.80;;;;;;5093807;28;20412;-71
2021/03/09 05:07:27;;;;;;;49.23;30.97;;;8.00;97.80;;;;;;5078759;28;20258;-71
2021/03/09 05:09:53;;;;;;;48.20;31.53;;;8.00;97.80;;;;;;5072565;28;20234;-71
2021/03/09 05:12:18;;;;;;;49.47;31.47;;;8.00;98.00;;;;;;5056023;28;20395;-71
2021/03/09 05:14:44;;;;;;;46.43;30.60;;;8.00;97.90;;;;;;5073341;28;20163;-72
2021/03/09 05:17:10;;;;;;;51.10;30.90;;;8.00;97.80;;;;;;5073692;28;20234;-72
2021/03/09 05:19:35;;;;;;;51.73;31.00;;;8.00;97.70;;;;;;5073355;28;20187;-72
2021/03/09 05:22:01;;;;;;;49.70;30.00;;;8.00;97.60;;;;;;5072980;28;20196;-72
2021/03/09 05:24:27;;;;;;;49.90;30.23;;;8.00;97.50;;;;;;5080848;28;20227;-72
2021/03/09 05:26:54;;;;;;;46.10;31.90;;;8.00;97.60;;;;;;5092831;28;20608;-73
2021/03/09 05:29:20;;;;;;;49.87;30.97;;;8.00;97.60;;;;;;5093938;28;20496;-73
2021/03/09 05:31:46;;;;;;;49.37;31.63;;;8.10;97.70;;;;;;5092474;28;20470;-73
2021/03/09 05:34:11;;;;;;;51.03;33.07;;;8.00;97.60;;;;;;5072661;28;20176;-73
2021/03/09 05:36:37;;;;;;;52.37;32.27;;;8.00;97.60;;;;;;5073170;28;20620;-72
2021/03/09 05:39:03;;;;;;;47.67;30.47;;;8.00;97.60;;;;;;5077886;28;20219;-73
2021/03/09 05:41:29;;;;;;;52.00;32.73;;;8.00;97.60;;;;;;5093498;28;20171;-73
2021/03/09 05:43:56;;;;;;;47.80;30.80;;;8.00;97.60;;;;;;5092799;28;20379;-73
2021/03/09 05:46:22;;;;;;;45.40;29.90;;;8.00;97.60;;;;;;5088119;28;20294;-73
2021/03/09 05:48:48;;;;;;;54.23;32.80;;;8.00;97.50;;;;;;5085955;28;20392;-73
2021/03/09 05:51:14;;;;;;;51.57;32.13;;;7.90;98.00;;;;;;5083458;28;20720;-73
2021/03/09 05:53:40;;;;;;;47.90;32.57;;;7.90;97.70;;;;;;5071011;28;20181;-73
2021/03/09 05:56:07;;;;;;;48.27;31.63;;;8.00;97.80;;;;;;5093494;28;20964;-73
2021/03/09 05:58:33;;;;;;;47.23;31.70;;;7.90;97.80;;;;;;5092979;28;20452;-73
2021/03/09 06:00:59;;;;;;;45.90;31.37;;;8.00;97.80;;;;;;5083522;28;20598;-72
2021/03/09 06:03:26;;;;;;;49.70;32.73;;;7.90;97.80;;;;;;5073315;28;20416;-72
2021/03/09 06:05:52;;;;;;;48.00;32.70;;;7.90;97.90;;;;;;5072481;28;20405;-72
2021/03/09 06:08:18;;;;;;;51.77;30.73;;;7.90;97.90;;;;;;5074581;28;20381;-73
2021/03/09 06:10:44;;;;;;;51.10;32.43;;;7.80;97.90;;;;;;5085937;28;20444;-75
2021/03/09 06:13:33;;;;;;;49.33;33.00;;;7.90;97.90;;;;;;5088874;28;20765;-72
2021/03/09 06:16:00;;;;;;;45.23;31.90;;;7.90;98.00;;;;;;5091977;28;20897;-73
2021/03/09 06:18:26;;;;;;;48.07;31.30;;;7.90;98.10;;;;;;5093129;28;20429;-72
2021/03/09 06:21:10;;;;;;;44.40;31.27;;;7.80;98.10;;;;;;5092882;28;20408;-72
2021/03/09 06:23:36;;;;;;;47.53;29.73;;;7.80;98.00;;;;;;5092194;28;20907;-72
2021/03/09 06:26:03;;;;;;;41.33;28.53;;;7.80;98.10;;;;;;5092420;28;20432;-72
2021/03/09 06:28:30;;;;;;;44.50;29.00;;;7.80;98.10;;;;;;5092984;28;20752;-72
2021/03/09 06:30:59;;;;;;;44.03;29.77;;;7.80;98.00;;;;;;5079581;28;20982;-72
2021/03/09 06:33:29;;;;;;;40.90;28.80;;;7.80;98.40;;;;;;5072762;28;20420;-72
2021/03/09 06:35:57;;;;;;;42.50;29.43;;;7.80;98.20;;;;;;5084960;28;20917;-73
2021/03/09 06:38:28;;;;;;;44.30;27.90;;;7.80;98.00;;;;;;5074280;28;20415;-73
2021/03/09 06:41:17;;;;;;;44.63;28.07;;;7.80;98.00;;;;;;5091142;28;20942;-73
2021/03/09 06:43:45;;;;;;;40.53;28.77;;;7.80;98.20;;;;;;5091697;28;20363;-72
2021/03/09 06:46:12;;;;;;;39.10;27.97;;;7.80;98.30;;;;;;5077543;28;20472;-73
2021/03/09 06:48:39;;;;;;;37.07;25.47;;;7.70;98.00;;;;;;5071772;28;20718;-72
2021/03/09 06:51:06;;;;;;;39.40;25.80;;;7.70;98.10;;;;;;5073591;28;20391;-74
2021/03/09 06:53:32;;;;;;;41.67;26.30;;;7.60;98.10;;;;;;5072513;28;20463;-73
2021/03/09 06:55:57;;;;;;;39.73;27.40;;;7.60;98.20;;;;;;5091430;28;20400;-73
2021/03/09 06:58:28;;;;;;;37.53;26.40;;;7.60;98.30;;;;;;5092481;28;20322;-71
2021/03/09 07:00:55;;;;;;;35.80;26.90;;;7.60;98.30;;;;;;5090067;28;20732;-71
2021/03/09 07:03:36;;;;;;;36.30;26.00;;;7.60;98.20;;;;;;5092725;28;20437;-72
2021/03/09 07:06:02;;;;;;;33.30;23.63;;;7.70;98.40;;;;;;5077851;28;20477;-72
2021/03/09 07:08:29;;;;;;;36.27;28.47;;;7.60;99.30;;;;;;5072398;28;20469;-71
2021/03/09 07:10:56;;;;;;;36.07;23.90;;;7.70;99.00;;;;;;5081469;28;20391;-72
2021/03/09 07:13:23;;;;;;;40.63;24.73;;;7.70;98.80;;;;;;5095871;28;20380;-71
2021/03/09 07:15:51;;;;;;;35.90;26.17;;;7.80;98.70;;;;;;5075764;28;20501;-71
2021/03/09 07:18:21;;;;;;;33.87;26.60;;;7.90;98.60;;;;;;5076027;28;20470;-71
2021/03/09 07:20:48;;;;;;;35.30;24.40;;;7.80;98.60;;;;;;5057653;28;20898;-71
2021/03/09 07:23:23;;;;;;;33.80;25.17;;;7.70;98.60;;;;;;5077310;28;20412;-72
2021/03/09 07:26:05;;;;;;;34.67;24.40;;;7.70;98.90;;;;;;5094880;28;20507;-71
2021/03/09 07:28:35;;;;;;;32.83;23.63;;;7.70;98.90;;;;;;5096552;28;20786;-71
2021/03/09 07:31:04;;;;;;;34.23;25.23;;;7.70;99.50;;;;;;5096069;28;20423;-71
2021/03/09 07:33:30;;;;;;;33.23;24.30;;;7.70;99.10;;;;;;5096421;28;20469;-71
2021/03/09 07:35:57;;;;;;;32.97;23.77;;;7.70;98.80;;;;;;5095311;28;20399;-71
2021/03/09 07:38:24;;;;;;;35.73;25.87;;;7.80;99.10;;;;;;5084432;28;20428;-71
2021/03/09 07:40:50;;;;;;;31.60;23.20;;;7.80;99.60;;;;;;5089544;28;20417;-72
2021/03/09 07:43:16;;;;;;;32.20;22.67;;;7.80;98.80;;;;;;5083420;28;20404;-71
2021/03/09 07:45:43;;;;;;;31.10;23.20;;;7.70;98.20;;;;;;5094552;28;20409;-71
2021/03/09 07:48:11;;;;;;;36.63;27.57;;;7.70;98.80;;;;;;5087210;28;20415;-71
2021/03/09 07:50:42;;;;;;;34.03;23.47;;;7.80;99.10;;;;;;5087171;28;20383;-71
2021/03/09 07:53:10;;;;;;;30.93;23.70;;;7.80;99.40;;;;;;5088408;28;20387;-71
2021/03/09 07:55:38;;;;;;;32.83;22.63;;;7.80;99.20;;;;;;5095305;28;20421;-71
2021/03/09 07:58:16;;;;;;;32.57;22.73;;;7.80;98.80;;;;;;5095939;28;20456;-71
2021/03/09 08:00:59;;;;;;;33.13;23.07;;;7.90;98.90;;;;;;5076600;28;20432;-71
2021/03/09 08:03:32;;;;;;;27.67;22.90;;;7.90;98.80;;;;;;5095312;28;20482;-72
2021/03/09 08:06:03;;;;;;;30.67;22.17;;;7.90;98.80;;;;;;5094745;28;20423;-71
2021/03/09 08:08:49;;;;;;;26.97;21.33;;;7.90;98.60;;;;;;5091803;28;20446;-71
2021/03/09 08:11:23;;;;;;;28.43;21.70;;;7.90;98.50;;;;;;5092099;28;20420;-71
2021/03/09 08:14:09;;;;;;;30.07;21.67;;;7.90;98.70;;;;;;5095248;28;20776;-71
2021/03/09 08:16:37;;;;;;;31.27;23.23;;;7.90;99.00;;;;;;5091984;28;20511;-71
2021/03/09 08:19:08;;;;;;;30.20;20.60;;;7.90;98.80;;;;;;5094506;28;20445;-71
2021/03/09 08:21:50;;;;;;;30.20;22.67;;;7.90;99.00;;;;;;5094814;28;20408;-71
2021/03/09 08:24:17;;;;;;;27.80;19.50;;;7.90;98.90;;;;;;5095037;28;20437;-71
2021/03/09 08:26:45;;;;;;;26.97;21.47;;;7.90;98.90;;;;;;5094717;28;20478;-71
2021/03/09 08:29:29;;;;;;;30.13;21.17;;;7.90;98.70;;;;;;5094981;28;20496;-71
2021/03/09 08:32:22;;;;;;;26.70;19.63;;;7.90;98.60;;;;;;5094279;28;20427;-71
2021/03/09 08:34:52;;;;;;;31.63;21.93;;;7.80;98.60;;;;;;5075723;28;20440;-71
2021/03/09 08:37:31;;;;;;;29.03;21.00;;;7.80;98.80;;;;;;5089555;28;20534;-71
2021/03/09 08:40:08;;;;;;;30.40;24.37;;;7.80;98.90;;;;;;5094513;28;20423;-71
2021/03/09 08:43:02;;;;;;;30.87;22.37;;;7.90;99.00;;;;;;5095138;28;20402;-71
2021/03/09 08:45:55;;;;;;;26.93;21.97;;;7.90;99.00;;;;;;5086468;28;20424;-74
2021/03/09 08:48:54;;;;;;;29.37;20.97;;;7.90;98.70;;;;;;5094855;28;20385;-71
2021/03/09 08:51:39;;;;;;;28.53;21.80;;;7.90;98.70;;;;;;5088356;28;20389;-71
2021/03/09 08:54:26;;;;;;;27.97;21.90;;;7.90;98.90;;;;;;5093990;28;20873;-71
2021/03/09 08:56:52;;;;;;;28.30;21.27;;;7.90;99.00;;;;;;5093686;28;20741;-71
2021/03/09 08:59:38;;;;;;;26.47;21.17;;;7.90;99.10;;;;;;5093666;28;20473;-71
2021/03/09 09:02:15;;;;;;;27.73;20.90;;;7.90;98.70;;;;;;5093622;28;20403;-71
2021/03/09 09:04:46;;;;;;;29.17;20.83;;;7.90;98.60;;;;;;5093354;28;20911;-71
2021/03/09 09:07:18;;;;;;;25.50;20.00;;;7.80;98.70;;;;;;5063080;28;20949;-71
2021/03/09 09:09:44;;;;;;;26.50;20.93;;;7.90;98.90;;;;;;5080873;28;20395;-71
2021/03/09 09:12:25;;;;;;;25.30;20.20;;;7.80;98.60;;;;;;5083892;28;20392;-71
2021/03/09 09:15:09;;;;;;;27.47;19.97;;;7.80;98.80;;;;;;5077323;28;20175;-71
2021/03/09 09:17:36;;;;;;;29.33;22.97;;;7.80;99.00;;;;;;5089975;28;20457;-73
2021/03/09 09:20:24;;;;;;;27.03;21.50;;;7.80;99.20;;;;;;5087457;28;20420;-72
2021/03/09 09:22:52;;;;;;;32.60;21.60;;;7.80;99.20;;;;;;5074950;28;20453;-71
2021/03/09 09:25:19;;;;;;;32.20;21.00;;;7.80;99.20;;;;;;5088603;28;20395;-71
2021/03/09 09:27:53;;;;;;;28.20;21.30;;;7.80;99.10;;;;;;5093498;28;20888;-71
2021/03/09 09:30:33;;;;;;;27.50;20.60;;;7.80;99.10;;;;;;5085830;28;20409;-72
2021/03/09 09:32:59;;;;;;;28.63;21.73;;;7.80;99.10;;;;;;5092587;28;20733;-72
2021/03/09 09:35:27;;;;;;;29.67;21.23;;;7.90;99.00;;;;;;5093933;28;20416;-72
2021/03/09 09:38:00;;;;;;;22.30;18.00;;;7.90;99.00;;;;;;5093213;28;20453;-72
2021/03/09 09:40:38;;;;;;;25.67;20.17;;;7.90;98.90;;;;;;5094179;28;20778;-72
2021/03/09 09:43:07;;;;;;;24.87;19.03;;;7.90;98.60;;;;;;5094051;28;20742;-72
2021/03/09 09:45:42;;;;;;;30.50;22.50;;;7.90;98.70;;;;;;5093626;28;20417;-72
2021/03/09 09:48:14;;;;;;;26.30;19.03;;;7.90;99.00;;;;;;5093992;28;20430;-72
2021/03/09 09:51:00;;;;;;;26.80;21.17;;;7.90;98.70;;;;;;5093423;28;20403;-72
2021/03/09 09:53:30;;;;;;;23.87;19.27;;;8.00;98.90;;;;;;5093723;28;20430;-72
2021/03/09 09:55:56;;;;;;;26.27;20.30;;;7.90;98.50;;;;;;5072665;28;20417;-72
2021/03/09 09:58:22;;;;;;;23.40;18.00;;;7.90;98.70;;;;;;5073281;28;20480;-72
2021/03/09 10:00:57;;;;;;;26.80;20.40;;;7.90;98.90;;;;;;5072685;28;20530;-72
2021/03/09 10:03:23;;;;;;;24.70;17.97;;;7.90;99.10;;;;;;5089181;28;20486;-72
2021/03/09 10:05:49;;;;;;;26.70;19.97;;;7.90;99.20;;;;;;5090946;28;20735;-72
2021/03/09 10:08:34;;;;;;;28.33;17.43;;;7.90;99.40;;;;;;5062328;28;20270;-73
2021/03/09 10:11:02;;;;;;;21.07;17.20;;;7.90;99.10;;;;;;5072060;28;20471;-72
2021/03/09 10:13:28;;;;;;;22.73;17.77;;;7.80;98.70;;;;;;5072502;28;20375;-73
2021/03/09 10:15:54;;;;;;;23.30;17.70;;;7.80;99.00;;;;;;5071976;28;20486;-72
2021/03/09 10:18:35;;;;;;;20.50;18.13;;;7.80;99.00;;;;;;5072804;28;20953;-72
2021/03/09 10:21:12;;;;;;;21.70;16.97;;;7.80;98.90;;;;;;5071769;28;20380;-72
2021/03/09 10:23:59;;;;;;;20.70;16.77;;;7.80;98.70;;;;;;5055285;28;20455;-72
2021/03/09 10:26:29;;;;;;;21.77;17.60;;;7.80;99.00;;;;;;5093245;28;20397;-72
2021/03/09 10:29:13;;;;;;;20.53;16.40;;;7.90;99.20;;;;;;5092441;28;20408;-72
2021/03/09 10:31:57;;;;;;;19.73;16.17;;;7.90;99.00;;;;;;5074236;28;20401;-71
2021/03/09 10:34:43;;;;;;;21.63;15.30;;;7.90;99.30;;;;;;5072767;28;20429;-72
2021/03/09 10:37:13;;;;;;;19.17;16.20;;;7.90;99.00;;;;;;5055193;28;20386;-72
2021/03/09 10:39:53;;;;;;;19.40;16.17;;;7.90;99.00;;;;;;5068550;28;20463;-71
2021/03/09 10:42:33;;;;;;;19.10;15.87;;;8.00;99.00;;;;;;5073166;28;20468;-71
2021/03/09 10:45:26;;;;;;;19.23;16.40;;;8.00;99.00;;;;;;5071313;28;20406;-71
2021/03/09 10:47:56;;;;;;;21.07;17.53;;;8.00;99.10;;;;;;5072027;28;20418;-71
2021/03/09 10:50:24;;;;;;;19.20;15.50;;;8.10;99.20;;;;;;5072577;28;20746;-71
2021/03/09 10:52:50;;;;;;;20.23;16.70;;;8.00;98.90;;;;;;5071959;28;20400;-71
2021/03/09 10:55:16;;;;;;;19.83;15.20;;;8.00;98.80;;;;;;5087151;28;20498;-71
2021/03/09 10:57:42;;;;;;;19.00;15.60;;;8.00;99.00;;;;;;5091717;28;20452;-72
2021/03/09 11:00:11;;;;;;;20.23;16.30;;;8.10;99.20;;;;;;5074108;28;20433;-71
2021/03/09 11:02:37;;;;;;;19.03;14.83;;;8.10;99.30;;;;;;5092240;28;20413;-71
2021/03/09 11:05:04;;;;;;;19.60;15.30;;;8.10;99.20;;;;;;5091113;28;20735;-71
2021/03/09 11:07:30;;;;;;;18.30;15.20;;;8.10;99.20;;;;;;5092532;28;20414;-71
2021/03/09 11:09:55;;;;;;;17.00;14.47;;;8.10;99.40;;;;;;5092296;28;20430;-71
2021/03/09 11:12:21;;;;;;;16.53;14.60;;;8.20;99.40;;;;;;5092392;28;20253;-72
2021/03/09 11:14:47;;;;;;;15.73;13.83;;;8.20;99.20;;;;;;5091939;28;20171;-71
2021/03/09 11:17:13;;;;;;;16.40;13.37;;;8.20;99.20;;;;;;5074414;28;20170;-73
2021/03/09 11:19:39;;;;;;;16.70;13.80;;;8.20;98.80;;;;;;5092144;28;20494;-71
2021/03/09 11:22:05;;;;;;;15.80;13.43;;;8.20;98.80;;;;;;5092486;28;20165;-71
2021/03/09 11:24:31;;;;;;;15.80;13.63;;;8.20;99.20;;;;;;5092637;28;20897;-71
2021/03/09 11:27:00;;;;;;;15.80;13.07;;;8.20;99.00;;;;;;5056548;28;20175;-71
2021/03/09 11:29:30;;;;;;;15.87;13.10;;;8.20;99.00;;;;;;5092633;28;20460;-71
2021/03/09 11:31:56;;;;;;;13.63;12.23;;;8.20;99.00;;;;;;5071551;28;20418;-71
2021/03/09 11:34:22;;;;;;;13.97;11.37;;;8.10;98.60;;;;;;5072121;28;20435;-71
2021/03/09 11:36:48;;;;;;;14.50;12.50;;;8.10;98.80;;;;;;5071605;28;20412;-72
2021/03/09 11:39:14;;;;;;;13.40;11.87;;;8.10;99.20;;;;;;5071878;28;20469;-71
2021/03/09 11:41:40;;;;;;;13.27;11.87;;;8.10;99.10;;;;;;5071837;28;20876;-71
2021/03/09 11:44:07;;;;;;;11.63;10.43;;;8.10;99.00;;;;;;5072095;28;20543;-71
2021/03/09 11:46:32;;;;;;;14.77;11.93;;;8.10;99.20;;;;;;5072041;28;20455;-71
2021/03/09 11:48:58;;;;;;;13.83;12.43;;;8.20;99.50;;;;;;5071375;28;20407;-71
2021/03/09 11:51:24;;;;;;;13.17;11.87;;;8.20;99.20;;;;;;5072000;28;20172;-71
2021/03/09 11:53:49;;;;;;;14.53;11.23;;;8.20;98.80;;;;;;5073661;28;20181;-71
2021/03/09 11:56:15;;;;;;;13.30;11.97;;;8.20;98.90;;;;;;5094082;28;20184;-71
2021/03/09 11:58:41;;;;;;;14.63;13.13;;;8.20;98.90;;;;;;5095113;28;20225;-71
2021/03/09 12:01:08;;;;;;;14.87;13.40;;;8.30;99.00;;;;;;5095849;28;20224;-73
2021/03/09 12:03:33;;;;;;;13.90;11.77;;;8.30;99.10;;;;;;5095920;28;20413;-71
2021/03/09 12:05:59;;;;;;;14.53;12.43;;;8.30;99.10;;;;;;5075915;28;20424;-71
2021/03/09 12:08:25;;;;;;;14.27;12.37;;;8.40;99.20;;;;;;5075401;28;20180;-71
2021/03/09 12:10:51;;;;;;;15.43;13.83;;;8.40;98.90;;;;;;5074967;28;20169;-71
2021/03/09 12:13:17;;;;;;;15.30;12.57;;;8.40;98.90;;;;;;5075293;28;20165;-71
2021/03/09 12:15:43;;;;;;;17.10;14.97;;;8.40;98.80;;;;;;5074680;28;20418;-71
2021/03/09 12:18:09;;;;;;;20.17;14.13;;;8.30;98.90;;;;;;5075184;28;20199;-71
2021/03/09 12:20:35;;;;;;;17.23;14.03;;;8.40;99.30;;;;;;5075259;28;20719;-71
2021/03/09 12:23:01;;;;;;;17.27;14.90;;;8.40;99.40;;;;;;5074498;28;20175;-71
2021/03/09 12:25:27;;;;;;;17.17;14.07;;;8.40;99.40;;;;;;5091469;28;20772;-71
2021/03/09 12:27:53;;;;;;;17.07;14.27;;;8.40;99.70;;;;;;5094787;28;20413;-71
2021/03/09 12:30:19;;;;;;;17.03;14.20;;;8.40;99.90;;;;;;5095346;28;20641;-71
2021/03/09 12:32:44;;;;;;;17.93;16.03;;;8.40;99.90;;;;;;5094737;28;20174;-71
2021/03/09 12:35:11;;;;;;;17.70;14.90;;;8.50;99.90;;;;;;5095173;28;20847;-71
2021/03/09 12:37:37;;;;;;;19.47;15.00;;;8.50;99.90;;;;;;5094905;28;20562;-71
2021/03/09 12:40:04;;;;;;;18.90;15.20;;;8.50;99.90;;;;;;5076278;28;20465;-71
2021/03/09 12:42:29;;;;;;;18.80;14.90;;;8.50;99.90;;;;;;5095078;28;20737;-71
2021/03/09 12:44:55;;;;;;;23.07;15.87;;;8.40;99.90;;;;;;5094456;28;20416;-71
2021/03/09 12:47:21;;;;;;;17.27;15.33;;;8.50;99.90;;;;;;5094822;28;20178;-71